Time;durP1;ratioP1;P1;durP2;ratioP2;P2;SDS_P1;SDS_P2;PMS_P1;PMS_P2;Temp;Humidity;BMP_temperature;BMP_pressure;BME280_temperature;BME280_humidity;BME280_pressure;Samples;Min_cycle;Max_cycle;Signal;HPM_P1;HPM_P2
2022/09/12 00:00:20;;;;;;;14.75;13.45;;;;;;;;;;5044761;28;25023;-48
2022/09/12 00:02:45;;;;;;;14.30;13.00;;;;;;;;;;5038579;28;24801;-48
2022/09/12 00:05:11;;;;;;;14.30;13.00;;;;;;;;;;5034380;28;24965;-48
2022/09/12 00:07:36;;;;;;;14.70;13.40;;;;;;;;;;5039505;28;24455;-48
2022/09/12 00:10:01;;;;;;;13.93;12.63;;;;;;;;;;5041570;28;24979;-49
2022/09/12 00:12:26;;;;;;;14.40;13.10;;;;;;;;;;5044048;28;24434;-47
2022/09/12 00:14:51;;;;;;;14.43;13.13;;;;;;;;;;5036867;28;24434;-48
2022/09/12 00:17:16;;;;;;;14.00;12.80;;;;;;;;;;5035781;28;24891;-48
2022/09/12 00:19:41;;;;;;;15.23;13.83;;;;;;;;;;5032630;28;24419;-49
2022/09/12 00:22:07;;;;;;;15.07;13.68;;;;;;;;;;5034204;28;24608;-47
2022/09/12 00:24:32;;;;;;;14.90;13.60;;;;;;;;;;5046481;28;24880;-48
2022/09/12 00:26:58;;;;;;;15.20;13.70;;;;;;;;;;5039357;28;24431;-47
2022/09/12 00:29:23;;;;;;;14.30;13.10;;;;;;;;;;5040387;28;24446;-47
2022/09/12 00:31:48;;;;;;;15.47;14.07;;;;;;;;;;5040429;28;24530;-48
2022/09/12 00:34:13;;;;;;;16.00;14.60;;;;;;;;;;5042632;28;24856;-48
2022/09/12 00:36:38;;;;;;;14.90;13.50;;;;;;;;;;5041021;28;24435;-48
2022/09/12 00:39:04;;;;;;;15.60;14.20;;;;;;;;;;5037687;28;25282;-49
2022/09/12 00:41:34;;;;;;;16.10;14.70;;;;;;;;;;5040277;28;24535;-48
2022/09/12 00:44:01;;;;;;;14.90;13.60;;;;;;;;;;5038642;28;24510;-48
2022/09/12 00:46:30;;;;;;;16.58;14.98;;;;;;;;;;5042469;28;25257;-48
2022/09/12 00:48:58;;;;;;;15.80;14.40;;;;;;;;;;5028008;28;24530;-47
2022/09/12 00:51:23;;;;;;;16.35;14.85;;;;;;;;;;5041599;28;24431;-47
2022/09/12 00:53:50;;;;;;;15.80;14.50;;;;;;;;;;5042576;28;24510;-48
2022/09/12 00:56:16;;;;;;;15.13;13.73;;;;;;;;;;5036426;28;24429;-48
2022/09/12 00:58:46;;;;;;;15.00;13.70;;;;;;;;;;5046361;28;24426;-48
2022/09/12 01:01:11;;;;;;;14.68;13.48;;;;;;;;;;5035158;28;24427;-48
2022/09/12 01:03:36;;;;;;;14.90;13.50;;;;;;;;;;5040799;28;24469;-48
2022/09/12 01:06:06;;;;;;;15.63;14.27;;;;;;;;;;5029849;28;25197;-48
2022/09/12 01:08:31;;;;;;;15.00;13.70;;;;;;;;;;5033195;28;24456;-48
2022/09/12 01:10:57;;;;;;;14.73;13.50;;;;;;;;;;5048819;28;24486;-48
2022/09/12 01:13:22;;;;;;;15.43;14.03;;;;;;;;;;5042807;28;24480;-48
2022/09/12 01:15:47;;;;;;;15.53;14.23;;;;;;;;;;5039259;28;24981;-48
2022/09/12 01:18:19;;;;;;;16.30;14.80;;;;;;;;;;5041416;28;24783;-48
2022/09/12 01:20:48;;;;;;;17.38;15.88;;;;;;;;;;5044024;28;24447;-48
2022/09/12 01:23:16;;;;;;;17.02;15.43;;;;;;;;;;5031643;28;24531;-48
2022/09/12 01:25:59;;;;;;;16.02;14.63;;;;;;;;;;5045855;28;24423;-48
2022/09/12 01:28:42;;;;;;;17.40;15.70;;;;;;;;;;5038391;28;24528;-48
2022/09/12 01:31:15;;;;;;;16.27;14.68;;;;;;;;;;5039288;28;24782;-47
2022/09/12 01:33:57;;;;;;;15.48;14.02;;;;;;;;;;5038928;28;24427;-48
2022/09/12 01:36:28;;;;;;;15.88;14.27;;;;;;;;;;5036904;28;24443;-48
2022/09/12 01:39:01;;;;;;;16.90;15.40;;;;;;;;;;5043926;28;24488;-48
2022/09/12 01:41:29;;;;;;;16.70;15.20;;;;;;;;;;5036070;28;24800;-48
2022/09/12 01:44:13;;;;;;;16.40;14.90;;;;;;;;;;5047104;28;24412;-50
2022/09/12 01:46:57;;;;;;;16.50;15.10;;;;;;;;;;5047356;28;24519;-48
2022/09/12 01:49:32;;;;;;;18.10;16.40;;;;;;;;;;5040530;28;24522;-47
2022/09/12 01:52:07;;;;;;;16.88;15.30;;;;;;;;;;5046055;28;24510;-48
2022/09/12 01:54:44;;;;;;;17.50;16.00;;;;;;;;;;5043225;28;24477;-48
2022/09/12 01:57:12;;;;;;;16.55;15.15;;;;;;;;;;5033885;28;24459;-49
2022/09/12 01:59:40;;;;;;;16.77;15.27;;;;;;;;;;5034997;28;25021;-48
2022/09/12 02:02:10;;;;;;;17.50;15.90;;;;;;;;;;5029180;28;24450;-48
2022/09/12 02:04:50;;;;;;;16.38;14.98;;;;;;;;;;5044159;28;24961;-47
2022/09/12 02:07:18;;;;;;;16.45;14.93;;;;;;;;;;5039911;28;24538;-48
2022/09/12 02:10:01;;;;;;;16.80;15.23;;;;;;;;;;5043997;28;24420;-47
2022/09/12 02:12:33;;;;;;;17.50;15.90;;;;;;;;;;5041195;28;24519;-48
2022/09/12 02:15:01;;;;;;;18.40;16.70;;;;;;;;;;5044110;28;24430;-48
2022/09/12 02:17:27;;;;;;;17.40;15.80;;;;;;;;;;5030326;28;24859;-48
2022/09/12 02:19:58;;;;;;;16.77;15.27;;;;;;;;;;5028717;28;25143;-48
2022/09/12 02:22:25;;;;;;;16.88;15.48;;;;;;;;;;5042806;28;24518;-48
2022/09/12 02:24:52;;;;;;;17.00;15.50;;;;;;;;;;5036061;28;24423;-48
2022/09/12 02:27:22;;;;;;;17.48;15.88;;;;;;;;;;5044053;28;24416;-49
2022/09/12 02:29:48;;;;;;;17.98;16.27;;;;;;;;;;5044569;28;24434;-48
2022/09/12 02:32:27;;;;;;;17.85;16.27;;;;;;;;;;5029510;28;24816;-48
2022/09/12 02:34:58;;;;;;;17.75;16.05;;;;;;;;;;5040207;28;24514;-48
2022/09/12 02:37:41;;;;;;;17.30;15.80;;;;;;;;;;5040705;28;24969;-49
2022/09/12 02:40:06;;;;;;;16.80;15.30;;;;;;;;;;5041014;28;24442;-49
2022/09/12 02:42:31;;;;;;;17.70;16.10;;;;;;;;;;5034665;28;25056;-47
2022/09/12 02:44:56;;;;;;;17.30;15.80;;;;;;;;;;5031416;28;24509;-46
2022/09/12 02:47:25;;;;;;;17.60;16.00;;;;;;;;;;5033136;28;24435;-48
2022/09/12 02:49:51;;;;;;;17.85;16.25;;;;;;;;;;5039698;28;24531;-47
2022/09/12 02:52:16;;;;;;;16.90;15.50;;;;;;;;;;5043197;28;24798;-48
2022/09/12 02:54:42;;;;;;;17.17;15.57;;;;;;;;;;5043194;28;24498;-47
2022/09/12 02:57:15;;;;;;;16.92;15.13;;;;;;;;;;5041523;28;24431;-48
2022/09/12 02:59:40;;;;;;;17.65;16.10;;;;;;;;;;5045693;28;24431;-48
2022/09/12 03:02:17;;;;;;;17.50;16.00;;;;;;;;;;5028821;28;24427;-48
2022/09/12 03:05:01;;;;;;;17.20;15.70;;;;;;;;;;5045167;28;24518;-48
2022/09/12 03:07:29;;;;;;;16.38;14.98;;;;;;;;;;5039148;28;24423;-49
2022/09/12 03:10:17;;;;;;;16.25;14.75;;;;;;;;;;5043693;28;24977;-48
2022/09/12 03:13:00;;;;;;;17.35;15.82;;;;;;;;;;5034345;28;24996;-48
2022/09/12 03:15:51;;;;;;;16.58;15.18;;;;;;;;;;5039911;28;24436;-48
2022/09/12 03:18:22;;;;;;;15.82;14.43;;;;;;;;;;5034686;28;24434;-49
2022/09/12 03:21:03;;;;;;;17.00;15.20;;;;;;;;;;5037146;28;24518;-48
2022/09/12 03:23:41;;;;;;;16.55;15.05;;;;;;;;;;5039900;28;25307;-48
2022/09/12 03:26:09;;;;;;;16.48;14.88;;;;;;;;;;5027189;28;24424;-48
2022/09/12 03:28:35;;;;;;;17.70;16.10;;;;;;;;;;5037864;28;24423;-48
2022/09/12 03:31:10;;;;;;;17.00;15.50;;;;;;;;;;5029205;28;24525;-48
2022/09/12 03:33:35;;;;;;;16.65;15.25;;;;;;;;;;5043331;28;24492;-49
2022/09/12 03:36:00;;;;;;;18.35;16.75;;;;;;;;;;5036811;28;24447;-48
2022/09/12 03:38:25;;;;;;;18.23;16.63;;;;;;;;;;5040144;28;24435;-49
2022/09/12 03:40:50;;;;;;;16.75;15.25;;;;;;;;;;5033700;28;24427;-49
2022/09/12 03:43:16;;;;;;;17.88;16.27;;;;;;;;;;5035640;28;24447;-49
2022/09/12 03:45:41;;;;;;;17.40;15.80;;;;;;;;;;5037018;28;24465;-49
2022/09/12 03:48:06;;;;;;;18.38;16.77;;;;;;;;;;5041135;28;24427;-48
2022/09/12 03:50:32;;;;;;;17.63;16.13;;;;;;;;;;5043147;28;24515;-48
2022/09/12 03:52:58;;;;;;;17.33;15.70;;;;;;;;;;5037627;28;24435;-49
2022/09/12 03:55:24;;;;;;;17.85;16.25;;;;;;;;;;5032009;28;24447;-49
2022/09/12 03:57:51;;;;;;;17.63;16.03;;;;;;;;;;5039069;28;24449;-49
2022/09/12 04:00:16;;;;;;;17.25;15.75;;;;;;;;;;5038149;28;24430;-47
2022/09/12 04:02:41;;;;;;;16.90;15.40;;;;;;;;;;5038063;28;24572;-48
2022/09/12 04:05:06;;;;;;;17.48;15.88;;;;;;;;;;5027942;28;24577;-48
2022/09/12 04:07:31;;;;;;;17.30;15.80;;;;;;;;;;5038248;28;24432;-49
2022/09/12 04:09:57;;;;;;;17.40;15.90;;;;;;;;;;5038745;28;24419;-47
2022/09/12 04:12:22;;;;;;;19.33;17.63;;;;;;;;;;5050935;28;24518;-46
2022/09/12 04:14:47;;;;;;;19.33;17.60;;;;;;;;;;5044844;28;25023;-50
2022/09/12 04:17:13;;;;;;;18.20;16.60;;;;;;;;;;5041671;28;25169;-47
2022/09/12 04:19:38;;;;;;;17.10;15.50;;;;;;;;;;5031028;28;24501;-48
2022/09/12 04:22:03;;;;;;;16.95;15.35;;;;;;;;;;5033562;28;24449;-48
2022/09/12 04:24:28;;;;;;;16.43;14.93;;;;;;;;;;5045728;28;24450;-48
2022/09/12 04:26:54;;;;;;;17.63;16.03;;;;;;;;;;5039674;28;24424;-47
2022/09/12 04:29:19;;;;;;;18.67;16.98;;;;;;;;;;5033363;28;25547;-47
2022/09/12 04:31:44;;;;;;;19.60;17.80;;;;;;;;;;5041055;28;24446;-47
2022/09/12 04:34:09;;;;;;;18.45;16.75;;;;;;;;;;5029665;28;24778;-48
2022/09/12 04:36:35;;;;;;;18.98;17.27;;;;;;;;;;5038888;28;24473;-48
2022/09/12 04:39:01;;;;;;;19.30;17.40;;;;;;;;;;5028924;28;24993;-48
2022/09/12 04:41:27;;;;;;;18.52;16.83;;;;;;;;;;5029445;28;24867;-48
2022/09/12 04:43:54;;;;;;;19.83;18.02;;;;;;;;;;5035278;28;24416;-48
2022/09/12 04:46:20;;;;;;;19.10;17.40;;;;;;;;;;5040814;28;24450;-48
2022/09/12 04:48:45;;;;;;;20.27;18.37;;;;;;;;;;5035265;28;25319;-48
2022/09/12 04:51:12;;;;;;;19.45;17.75;;;;;;;;;;5046025;28;24423;-49
2022/09/12 04:53:38;;;;;;;17.58;15.98;;;;;;;;;;5039393;28;24420;-48
2022/09/12 04:56:04;;;;;;;19.05;17.35;;;;;;;;;;5031138;28;24455;-48
2022/09/12 04:58:30;;;;;;;19.80;18.10;;;;;;;;;;5028524;28;24438;-48
2022/09/12 05:00:55;;;;;;;18.50;16.80;;;;;;;;;;5043193;28;24427;-47
2022/09/12 05:03:20;;;;;;;18.20;16.50;;;;;;;;;;5040159;28;24442;-47
2022/09/12 05:05:45;;;;;;;18.58;16.90;;;;;;;;;;5032232;28;24916;-47
2022/09/12 05:08:10;;;;;;;19.60;17.80;;;;;;;;;;5035475;28;24419;-48
2022/09/12 05:10:36;;;;;;;18.23;16.52;;;;;;;;;;5038953;28;24422;-49
2022/09/12 05:13:01;;;;;;;19.03;17.13;;;;;;;;;;5030701;28;24641;-49
2022/09/12 05:15:26;;;;;;;19.27;17.38;;;;;;;;;;5034817;28;24423;-48
2022/09/12 05:17:51;;;;;;;20.25;18.25;;;;;;;;;;5044537;28;24416;-48
2022/09/12 05:20:16;;;;;;;17.42;15.90;;;;;;;;;;5043138;28;25059;-48
2022/09/12 05:22:42;;;;;;;18.63;16.87;;;;;;;;;;5040604;28;24435;-49
2022/09/12 05:25:07;;;;;;;18.50;16.70;;;;;;;;;;5028476;28;24786;-48
2022/09/12 05:27:32;;;;;;;18.20;16.40;;;;;;;;;;5040161;28;25031;-47
2022/09/12 05:29:57;;;;;;;19.90;18.00;;;;;;;;;;5032680;28;24450;-48
2022/09/12 05:32:23;;;;;;;20.00;18.10;;;;;;;;;;5037717;28;24430;-47
2022/09/12 05:34:48;;;;;;;19.07;17.27;;;;;;;;;;5043492;28;24984;-48
2022/09/12 05:37:13;;;;;;;19.10;17.30;;;;;;;;;;5044091;28;24530;-48
2022/09/12 05:39:38;;;;;;;19.23;17.42;;;;;;;;;;5038978;28;25030;-48
2022/09/12 05:42:04;;;;;;;18.05;16.35;;;;;;;;;;5044688;28;24444;-47
2022/09/12 05:44:30;;;;;;;18.48;16.73;;;;;;;;;;5033025;28;24450;-48
2022/09/12 05:46:55;;;;;;;18.40;16.70;;;;;;;;;;5035966;28;24453;-47
2022/09/12 05:49:21;;;;;;;19.80;18.00;;;;;;;;;;5028756;28;24980;-47
2022/09/12 05:51:46;;;;;;;18.33;16.63;;;;;;;;;;5045581;28;25044;-47
2022/09/12 05:54:14;;;;;;;19.47;17.67;;;;;;;;;;5036148;28;24412;-47
2022/09/12 05:56:40;;;;;;;19.50;17.70;;;;;;;;;;5035827;28;24431;-47
2022/09/12 05:59:17;;;;;;;18.60;16.90;;;;;;;;;;5048904;28;24841;-47
2022/09/12 06:01:44;;;;;;;19.48;17.48;;;;;;;;;;5035771;28;24447;-47
2022/09/12 06:04:09;;;;;;;17.73;16.13;;;;;;;;;;5042092;28;25028;-48
2022/09/12 06:06:36;;;;;;;18.77;16.87;;;;;;;;;;5044788;28;24546;-48
2022/09/12 06:09:02;;;;;;;19.60;17.70;;;;;;;;;;5045928;28;24560;-48
2022/09/12 06:11:29;;;;;;;18.57;16.70;;;;;;;;;;5045329;28;24411;-47
2022/09/12 06:13:55;;;;;;;19.30;17.40;;;;;;;;;;5036145;28;24414;-48
2022/09/12 06:16:22;;;;;;;18.70;17.00;;;;;;;;;;5038627;28;24430;-47
2022/09/12 06:18:48;;;;;;;18.70;16.90;;;;;;;;;;5036432;28;24473;-48
2022/09/12 06:21:14;;;;;;;18.57;16.67;;;;;;;;;;5034094;28;24420;-48
2022/09/12 06:23:39;;;;;;;18.50;16.70;;;;;;;;;;5048078;28;24427;-47
2022/09/12 06:26:04;;;;;;;22.10;20.00;;;;;;;;;;5042610;28;24431;-47
2022/09/12 06:28:30;;;;;;;18.55;16.65;;;;;;;;;;5040373;28;24443;-47
2022/09/12 06:31:06;;;;;;;17.80;15.90;;;;;;;;;;5032905;28;24423;-48
2022/09/12 06:33:32;;;;;;;17.80;16.10;;;;;;;;;;5045880;28;24394;-48
2022/09/12 06:36:04;;;;;;;21.00;19.00;;;;;;;;;;5032557;28;24579;-48
2022/09/12 06:38:31;;;;;;;18.77;17.08;;;;;;;;;;5038536;28;25056;-47
2022/09/12 06:40:56;;;;;;;17.13;15.63;;;;;;;;;;5030798;28;24961;-47
2022/09/12 06:43:22;;;;;;;17.90;16.30;;;;;;;;;;5041599;28;24443;-48
2022/09/12 06:45:48;;;;;;;18.10;16.40;;;;;;;;;;5042558;28;24472;-48
2022/09/12 06:48:13;;;;;;;20.55;18.50;;;;;;;;;;5034802;28;24426;-48
2022/09/12 06:50:38;;;;;;;18.67;16.98;;;;;;;;;;5046306;28;24484;-48
2022/09/12 06:53:03;;;;;;;17.20;15.52;;;;;;;;;;5037654;28;24426;-48
2022/09/12 06:55:28;;;;;;;18.20;16.60;;;;;;;;;;5047844;28;24995;-49
2022/09/12 06:57:54;;;;;;;17.13;15.47;;;;;;;;;;5037209;28;24447;-48
2022/09/12 07:00:19;;;;;;;17.47;15.87;;;;;;;;;;5047601;28;24476;-47
2022/09/12 07:02:44;;;;;;;17.30;15.60;;;;;;;;;;5047217;28;24969;-48
2022/09/12 07:05:10;;;;;;;16.83;15.13;;;;;;;;;;5044331;28;24400;-48
2022/09/12 07:07:35;;;;;;;16.27;14.68;;;;;;;;;;5040578;28;24474;-48
2022/09/12 07:10:01;;;;;;;17.13;15.43;;;;;;;;;;5045969;28;24473;-47
2022/09/12 07:12:27;;;;;;;17.00;15.30;;;;;;;;;;5044194;28;24968;-47
2022/09/12 07:14:52;;;;;;;17.35;15.65;;;;;;;;;;5045170;28;24669;-47
2022/09/12 07:17:17;;;;;;;16.83;15.32;;;;;;;;;;5045468;28;24492;-48
2022/09/12 07:19:42;;;;;;;17.65;16.00;;;;;;;;;;5027254;28;24407;-48
2022/09/12 07:22:07;;;;;;;18.57;16.87;;;;;;;;;;5046849;28;25082;-49
2022/09/12 07:24:32;;;;;;;17.90;16.20;;;;;;;;;;5047416;28;24427;-47
2022/09/12 07:26:57;;;;;;;18.70;16.80;;;;;;;;;;5047127;28;24399;-48
2022/09/12 07:29:23;;;;;;;16.57;14.97;;;;;;;;;;5032575;28;24663;-48
2022/09/12 07:31:48;;;;;;;18.85;17.05;;;;;;;;;;5045338;28;24426;-48
2022/09/12 07:34:13;;;;;;;17.05;15.45;;;;;;;;;;5046321;28;24406;-48
2022/09/12 07:36:38;;;;;;;19.00;17.20;;;;;;;;;;5047105;28;25103;-48
2022/09/12 07:39:03;;;;;;;19.08;17.27;;;;;;;;;;5040587;28;24427;-48
2022/09/12 07:41:30;;;;;;;16.83;15.30;;;;;;;;;;5026623;28;24403;-48
2022/09/12 07:43:56;;;;;;;18.27;16.47;;;;;;;;;;5034793;28;25290;-48
2022/09/12 07:46:22;;;;;;;16.15;14.65;;;;;;;;;;5046705;28;24454;-48
2022/09/12 07:48:50;;;;;;;15.93;14.43;;;;;;;;;;5044058;28;24461;-48
2022/09/12 07:51:16;;;;;;;15.65;14.25;;;;;;;;;;5028214;28;24408;-49
2022/09/12 07:53:42;;;;;;;16.17;14.57;;;;;;;;;;5026656;28;24755;-47
2022/09/12 07:56:09;;;;;;;14.82;13.43;;;;;;;;;;5026682;28;24941;-49
2022/09/12 07:58:35;;;;;;;17.00;15.30;;;;;;;;;;5035916;28;24434;-48
2022/09/12 08:01:03;;;;;;;14.68;13.38;;;;;;;;;;5038791;28;24447;-47
2022/09/12 08:03:28;;;;;;;16.85;15.35;;;;;;;;;;5050394;28;24446;-48
2022/09/12 08:05:53;;;;;;;15.10;13.70;;;;;;;;;;5052601;28;24416;-48
2022/09/12 08:08:18;;;;;;;13.03;11.93;;;;;;;;;;5053027;28;24472;-47
2022/09/12 08:10:43;;;;;;;13.10;12.00;;;;;;;;;;5041589;28;24507;-47
2022/09/12 08:13:09;;;;;;;14.40;13.00;;;;;;;;;;5053215;28;24399;-48
2022/09/12 08:15:34;;;;;;;14.83;13.53;;;;;;;;;;5052549;28;24493;-48
2022/09/12 08:18:00;;;;;;;12.60;11.50;;;;;;;;;;5053017;28;24449;-48
2022/09/12 08:20:25;;;;;;;12.35;11.35;;;;;;;;;;5048313;28;24426;-49
2022/09/12 08:22:50;;;;;;;12.73;11.73;;;;;;;;;;5052209;28;24439;-47
2022/09/12 08:25:15;;;;;;;12.52;11.45;;;;;;;;;;5053029;28;24901;-49
2022/09/12 08:27:41;;;;;;;12.23;11.23;;;;;;;;;;5052041;28;24474;-48
2022/09/12 08:30:08;;;;;;;11.90;10.80;;;;;;;;;;5045545;28;24518;-47
2022/09/12 08:32:33;;;;;;;11.40;10.50;;;;;;;;;;5032937;28;24427;-48
2022/09/12 08:34:58;;;;;;;9.40;8.70;;;;;;;;;;5051370;28;24446;-49
2022/09/12 08:37:24;;;;;;;11.05;10.13;;;;;;;;;;5048598;28;24514;-49
2022/09/12 08:39:50;;;;;;;11.30;10.40;;;;;;;;;;5045892;28;24485;-47
2022/09/12 08:42:24;;;;;;;11.20;10.40;;;;;;;;;;5028780;28;21393;-48
2022/09/12 08:45:16;;;;;;;11.00;10.10;;;;;;;;;;5047196;28;24423;-48
2022/09/12 08:47:43;;;;;;;10.05;9.25;;;;;;;;;;5051486;28;24427;-48
2022/09/12 08:50:08;;;;;;;10.52;9.73;;;;;;;;;;5052371;28;24508;-48
2022/09/12 08:52:52;;;;;;;10.67;9.77;;;;;;;;;;5051420;28;24586;-47
2022/09/12 08:55:25;;;;;;;9.70;8.90;;;;;;;;;;5032911;28;24424;-48
2022/09/12 08:57:51;;;;;;;9.98;9.10;;;;;;;;;;5040335;28;25078;-49
2022/09/12 09:00:17;;;;;;;9.50;8.70;;;;;;;;;;5050216;28;24427;-48
2022/09/12 09:02:57;;;;;;;9.70;8.90;;;;;;;;;;5050705;28;24543;-48
2022/09/12 09:05:47;;;;;;;10.10;9.30;;;;;;;;;;5042988;28;24419;-47
2022/09/12 09:08:16;;;;;;;11.35;10.45;;;;;;;;;;5050668;28;24426;-48
2022/09/12 09:10:47;;;;;;;11.03;10.13;;;;;;;;;;5046380;28;24414;-48
2022/09/12 09:14:46;;;;;;;9.93;9.18;;;;;;;;;;5046037;28;25084;-48
2022/09/12 09:16:12;;;;;;;7.78;7.22;;;;;;;;;;5043941;28;24488;-48
2022/09/12 09:18:38;;;;;;;7.20;6.60;;;;;;;;;;5047152;28;24530;-48
2022/09/12 09:21:17;;;;;;;7.82;7.22;;;;;;;;;;5048678;28;24395;-48
2022/09/12 09:23:45;;;;;;;8.32;7.72;;;;;;;;;;5049511;28;24416;-48
2022/09/12 09:26:27;;;;;;;8.80;8.00;;;;;;;;;;5049319;28;24383;-48
2022/09/12 09:28:54;;;;;;;6.68;6.18;;;;;;;;;;5046667;28;25357;-48
2022/09/12 09:31:23;;;;;;;5.68;5.28;;;;;;;;;;5048488;28;24453;-48
2022/09/12 09:33:50;;;;;;;7.40;6.80;;;;;;;;;;5049331;28;24399;-48
2022/09/12 09:36:33;;;;;;;7.10;6.53;;;;;;;;;;5049130;28;24449;-48
2022/09/12 09:39:11;;;;;;;6.90;6.40;;;;;;;;;;5043234;28;24443;-48
2022/09/12 09:41:42;;;;;;;5.43;5.03;;;;;;;;;;5028317;28;24457;-49
2022/09/12 09:44:07;;;;;;;5.63;5.22;;;;;;;;;;5032189;28;24816;-49
2022/09/12 09:46:32;;;;;;;6.10;5.70;;;;;;;;;;5048716;28;24502;-49
2022/09/12 09:48:59;;;;;;;7.07;6.57;;;;;;;;;;5047875;28;24452;-50
2022/09/12 09:51:32;;;;;;;5.45;5.05;;;;;;;;;;5047404;28;24553;-48
2022/09/12 09:54:02;;;;;;;4.90;4.60;;;;;;;;;;5048648;28;24486;-48
2022/09/12 09:56:31;;;;;;;5.70;5.30;;;;;;;;;;5048856;28;24414;-49
2022/09/12 09:59:06;;;;;;;4.90;4.60;;;;;;;;;;5047041;28;24441;-49
2022/09/12 10:01:32;;;;;;;4.40;4.10;;;;;;;;;;5028129;28;24394;-48
2022/09/12 10:03:58;;;;;;;3.60;3.40;;;;;;;;;;5040523;28;24836;-48
2022/09/12 10:06:31;;;;;;;3.88;3.58;;;;;;;;;;5048216;28;24738;-48
2022/09/12 10:09:23;;;;;;;4.10;3.80;;;;;;;;;;5048363;28;24395;-48
2022/09/12 10:11:48;;;;;;;3.92;3.60;;;;;;;;;;5039830;28;24516;-49
2022/09/12 10:14:27;;;;;;;3.40;3.20;;;;;;;;;;5043435;28;24423;-48
2022/09/12 10:16:53;;;;;;;3.40;3.10;;;;;;;;;;5027746;28;24595;-48
2022/09/12 10:19:21;;;;;;;3.50;3.30;;;;;;;;;;5028206;28;24587;-47
2022/09/12 10:21:49;;;;;;;3.33;3.13;;;;;;;;;;5027336;28;24977;-47
2022/09/12 10:24:23;;;;;;;3.30;3.10;;;;;;;;;;5035943;28;24435;-49
2022/09/12 10:26:53;;;;;;;3.90;3.60;;;;;;;;;;5044995;28;24469;-48
2022/09/12 10:29:24;;;;;;;4.07;3.58;;;;;;;;;;5047527;28;24426;-48
2022/09/12 10:31:52;;;;;;;4.10;3.80;;;;;;;;;;5047472;28;24499;-48
2022/09/12 10:34:20;;;;;;;3.50;3.30;;;;;;;;;;5047233;28;24446;-48
2022/09/12 10:36:45;;;;;;;4.20;3.90;;;;;;;;;;5046586;28;24436;-48
2022/09/12 10:39:14;;;;;;;4.10;3.80;;;;;;;;;;5046887;28;24753;-48
2022/09/12 10:41:40;;;;;;;3.80;3.60;;;;;;;;;;5047030;28;24411;-48
2022/09/12 10:44:08;;;;;;;3.63;3.42;;;;;;;;;;5038155;28;24473;-48
2022/09/12 10:46:33;;;;;;;4.18;3.90;;;;;;;;;;5027531;28;25151;-48
2022/09/12 10:49:12;;;;;;;4.30;4.00;;;;;;;;;;5027292;28;25149;-48
2022/09/12 10:51:37;;;;;;;3.20;3.00;;;;;;;;;;5026941;28;25153;-49
2022/09/12 10:54:04;;;;;;;4.20;3.90;;;;;;;;;;5037374;28;24424;-49
2022/09/12 10:56:31;;;;;;;3.72;3.47;;;;;;;;;;5027007;28;24478;-48
2022/09/12 10:59:15;;;;;;;3.70;3.50;;;;;;;;;;5027383;28;24385;-48
2022/09/12 11:01:42;;;;;;;3.40;3.20;;;;;;;;;;5027410;28;24489;-49
2022/09/12 11:04:17;;;;;;;3.67;3.38;;;;;;;;;;5027766;28;25265;-49
2022/09/12 11:06:42;;;;;;;3.85;3.55;;;;;;;;;;5026708;28;24400;-48
2022/09/12 11:09:20;;;;;;;3.87;3.57;;;;;;;;;;5027021;28;24449;-49
2022/09/12 11:11:48;;;;;;;3.80;3.50;;;;;;;;;;5040297;28;24430;-49
2022/09/12 11:14:17;;;;;;;3.90;3.60;;;;;;;;;;5045107;28;24391;-49
2022/09/12 11:16:47;;;;;;;4.07;3.45;;;;;;;;;;5043888;28;24427;-49
2022/09/12 11:19:31;;;;;;;3.60;3.40;;;;;;;;;;5046470;28;24533;-48
2022/09/12 11:22:01;;;;;;;3.97;3.67;;;;;;;;;;5036927;28;24999;-48
2022/09/12 11:24:36;;;;;;;3.90;3.60;;;;;;;;;;5045876;28;24465;-48
2022/09/12 11:27:01;;;;;;;3.80;3.50;;;;;;;;;;5043371;28;24510;-48
2022/09/12 11:29:32;;;;;;;3.40;3.10;;;;;;;;;;5042440;28;25081;-48
2022/09/12 11:31:57;;;;;;;2.90;2.70;;;;;;;;;;5033762;28;24868;-49
2022/09/12 11:34:29;;;;;;;3.45;3.25;;;;;;;;;;5046399;28;24470;-49
2022/09/12 11:37:04;;;;;;;2.90;2.70;;;;;;;;;;5044394;28;25046;-49
2022/09/12 11:39:39;;;;;;;2.58;2.38;;;;;;;;;;5046763;28;24403;-48
2022/09/12 11:42:08;;;;;;;2.80;2.60;;;;;;;;;;5045362;28;24434;-48
2022/09/12 11:44:33;;;;;;;2.67;2.47;;;;;;;;;;5042901;28;24466;-49
2022/09/12 11:47:03;;;;;;;2.80;2.60;;;;;;;;;;5038084;28;24467;-48
2022/09/12 11:49:33;;;;;;;2.80;2.60;;;;;;;;;;5033270;28;24439;-49
2022/09/12 11:52:13;;;;;;;2.25;2.15;;;;;;;;;;5026318;28;24455;-49
2022/09/12 11:54:41;;;;;;;1.85;1.75;;;;;;;;;;5025860;28;24469;-48
2022/09/12 11:57:22;;;;;;;2.20;2.00;;;;;;;;;;5026667;28;24434;-48
2022/09/12 11:59:59;;;;;;;2.20;2.00;;;;;;;;;;5026749;28;24518;-49
2022/09/12 12:02:26;;;;;;;2.00;1.90;;;;;;;;;;5025507;28;24841;-48
2022/09/12 12:05:02;;;;;;;2.00;1.80;;;;;;;;;;5028319;28;24809;-48
2022/09/12 12:07:30;;;;;;;2.00;1.90;;;;;;;;;;5026260;28;24993;-48
2022/09/12 12:09:55;;;;;;;2.08;1.98;;;;;;;;;;5034851;28;24438;-48
2022/09/12 12:12:23;;;;;;;2.70;2.50;;;;;;;;;;5033366;28;24415;-49
2022/09/12 12:14:50;;;;;;;2.90;2.60;;;;;;;;;;5041220;28;24431;-49
2022/09/12 12:17:19;;;;;;;2.95;2.70;;;;;;;;;;5046418;28;24414;-49
2022/09/12 12:19:45;;;;;;;2.40;2.30;;;;;;;;;;5040033;28;25001;-48
2022/09/12 12:22:19;;;;;;;2.53;2.40;;;;;;;;;;5026075;28;24427;-49
2022/09/12 12:24:54;;;;;;;2.63;2.42;;;;;;;;;;5030924;28;24435;-49
2022/09/12 12:27:23;;;;;;;2.10;2.00;;;;;;;;;;5028324;28;24550;-49
2022/09/12 12:29:48;;;;;;;2.70;2.50;;;;;;;;;;5029693;28;24961;-49
2022/09/12 12:32:16;;;;;;;2.63;2.42;;;;;;;;;;5025847;28;24426;-49
2022/09/12 12:34:45;;;;;;;2.80;2.60;;;;;;;;;;5031304;28;24446;-49
2022/09/12 12:37:24;;;;;;;2.92;2.70;;;;;;;;;;5027302;28;24428;-48
2022/09/12 12:39:49;;;;;;;2.92;2.30;;;;;;;;;;5025785;28;24459;-49
2022/09/12 12:42:33;;;;;;;3.30;2.70;;;;;;;;;;5025353;28;24470;-47
2022/09/12 12:45:03;;;;;;;2.53;2.33;;;;;;;;;;5040717;28;24478;-48
2022/09/12 12:47:32;;;;;;;2.53;2.40;;;;;;;;;;5049166;28;24392;-47
2022/09/12 12:49:59;;;;;;;2.53;2.30;;;;;;;;;;5035753;28;24423;-47
2022/09/12 12:52:27;;;;;;;2.50;2.30;;;;;;;;;;5028921;28;24388;-49
2022/09/12 12:54:54;;;;;;;2.10;1.90;;;;;;;;;;5040771;28;24434;-48
2022/09/12 12:57:31;;;;;;;2.50;2.30;;;;;;;;;;5045821;28;24558;-49
2022/09/12 13:00:01;;;;;;;2.10;2.00;;;;;;;;;;5037386;28;24480;-47
2022/09/12 13:02:29;;;;;;;2.05;1.85;;;;;;;;;;5049088;28;25037;-47
2022/09/12 13:04:54;;;;;;;2.30;2.10;;;;;;;;;;5047813;28;24522;-46
2022/09/12 13:07:31;;;;;;;2.10;2.00;;;;;;;;;;5045278;28;24589;-48
2022/09/12 13:09:58;;;;;;;2.20;2.00;;;;;;;;;;5044157;28;24518;-47
2022/09/12 13:12:25;;;;;;;2.78;2.15;;;;;;;;;;5045810;28;24391;-47
2022/09/12 13:14:54;;;;;;;2.50;2.30;;;;;;;;;;5046670;28;24497;-48
2022/09/12 13:17:30;;;;;;;1.90;1.80;;;;;;;;;;5048382;28;24431;-47
2022/09/12 13:20:14;;;;;;;2.33;2.13;;;;;;;;;;5029329;28;24396;-48
2022/09/12 13:22:41;;;;;;;2.50;2.40;;;;;;;;;;5029262;28;24818;-47
2022/09/12 13:25:20;;;;;;;2.13;1.92;;;;;;;;;;5029720;28;24443;-48
2022/09/12 13:27:58;;;;;;;2.38;2.00;;;;;;;;;;5033544;28;24420;-47
2022/09/12 13:30:24;;;;;;;2.43;2.30;;;;;;;;;;5040506;28;24470;-47
2022/09/12 13:32:49;;;;;;;2.17;2.08;;;;;;;;;;5029069;28;24447;-47
2022/09/12 13:35:25;;;;;;;1.80;1.70;;;;;;;;;;5032392;28;24442;-47
2022/09/12 13:37:58;;;;;;;1.80;1.70;;;;;;;;;;5049286;28;25011;-47
2022/09/12 13:40:29;;;;;;;2.30;2.20;;;;;;;;;;5049153;28;24558;-54
2022/09/12 13:43:07;;;;;;;2.40;2.20;;;;;;;;;;5048509;28;24450;-48
2022/09/12 13:45:34;;;;;;;2.40;2.30;;;;;;;;;;5042042;28;24474;-46
2022/09/12 13:48:03;;;;;;;2.00;1.90;;;;;;;;;;5044842;28;25031;-46
2022/09/12 13:50:35;;;;;;;2.22;2.13;;;;;;;;;;5048699;28;24391;-45
2022/09/12 13:53:03;;;;;;;2.30;2.20;;;;;;;;;;5048425;28;24481;-46
2022/09/12 13:55:29;;;;;;;2.20;2.00;;;;;;;;;;5045427;28;24515;-46
2022/09/12 13:57:56;;;;;;;2.50;2.30;;;;;;;;;;5048454;28;24955;-46
2022/09/12 14:00:23;;;;;;;2.35;2.15;;;;;;;;;;5042827;28;24503;-47
2022/09/12 14:02:48;;;;;;;2.40;2.20;;;;;;;;;;5028008;28;24478;-45
2022/09/12 14:05:18;;;;;;;2.30;2.10;;;;;;;;;;5037888;28;24431;-47
2022/09/12 14:07:54;;;;;;;2.27;2.07;;;;;;;;;;5047610;28;24477;-46
2022/09/12 14:10:22;;;;;;;2.10;2.00;;;;;;;;;;5046724;28;24805;-48
2022/09/12 14:12:49;;;;;;;2.90;2.22;;;;;;;;;;5041304;28;25009;-46
2022/09/12 14:15:18;;;;;;;2.30;2.20;;;;;;;;;;5026779;28;24435;-47
2022/09/12 14:17:50;;;;;;;2.30;2.10;;;;;;;;;;5028126;28;24399;-46
2022/09/12 14:20:17;;;;;;;2.40;2.20;;;;;;;;;;5028118;28;24396;-47
2022/09/12 14:22:42;;;;;;;2.30;2.20;;;;;;;;;;5028214;28;24780;-48
2022/09/12 14:25:15;;;;;;;2.30;2.20;;;;;;;;;;5028608;28;24925;-47
2022/09/12 14:27:44;;;;;;;2.60;2.50;;;;;;;;;;5037112;28;24426;-47
2022/09/12 14:30:20;;;;;;;2.25;2.15;;;;;;;;;;5044649;28;25019;-47
2022/09/12 14:33:00;;;;;;;1.90;1.80;;;;;;;;;;5047309;28;24957;-47
2022/09/12 14:35:25;;;;;;;2.20;2.00;;;;;;;;;;5045796;28;24423;-47